Main page
METAR-TAF:

METAR-TAF

Airports :

Sarzana, Italy

Aeroporto di Sarzana-Luni

latitude: 44-05N, longitude: 009-59E, elevation: 9 m

Current weather observation

The report was made 6 hours and 50 minutes ago, at 13:55 UTC
Wind 5 kt from the South/Southeast
Temperature 30°C
Humidity 52%
Pressure 1009 hPa
Visibility 10 km or more
Few clouds at a height of 3000 ft

METAR: LIQW 271355Z 15005KT 9999 FEW030 30/19 Q1009 RMK FEW VIS MIN 9999 WIND THR18 18007KT BLU

Time: 22:45 (20:45 UTC)


TAF: missing

Weather observations and forecasts of more than 4000 airports (METAR and TAF reports).

The available stations are represented by yellow and red dots on the map.

Hover mouse over dot to see the name of the station.

Then click to see weather observations and forecasts.

To change the map : click on the green buttons with a black cross to zoom in, on the green button with a dash to zoom out, or on the green arrows for adjacent maps.


METAR-TAF: